Finest — WCW8374 — position and weather

sailwx.info

Track history (hours):
 
Tides and Currents Weather Stations Pressure Air Temp Water Temp Dewpoint Dewpoint Depression Visibility Wind Speed Wind Dir Waves Ship Positions

Finest

Owner: NEW YORK FAST FERRY SERVICES INC, MAMARONECK, NY. More information available from US FCC via Universal Licensing System and Coast Guard Vessel Documentation Center.

Last reported at 2015-Jul-02 22:33 UTC. Time now 2015-Jul-04 15:18 UTC.
Position N 40°35' W 074°03'.

Length 38 m.

Type: High speed craft. MMSI: 366990590.

Date/timePositionNaut miles runAvg speedWind from/ knotsBaromVisibWave heightAir tempDewpointWater temp
2015-Jul-02 22:33N 40°35' W 074°03'3 2.7
2015-Jul-02 21:33N 40°33' W 074°04'10 9.8
2015-Jul-02 20:34N 40°42' W 074°00'1 1.1
2015-Jul-02 19:33N 40°43' W 074°01'1714.6
2015-Jul-02 18:24N 40°26' W 074°05'1112.7
2015-Jul-02 17:33N 40°37' W 074°03'9 9.3
2015-Jul-02 16:33N 40°46' W 074°00'0 0.0
2015-Jul-02 15:33N 40°46' W 074°00'0 0.0
2015-Jul-02 14:33N 40°46' W 074°00'0 0.0
2015-Jul-02 13:33N 40°46' W 074°00'5 5.2
2015-Jul-02 12:34N 40°41' W 074°02'4 4.1
2015-Jul-02 11:33N 40°37' W 074°03'1 0.1
2015-Jul-01 22:33N 40°38' W 074°03'4 2.1
2015-Jul-01 20:34N 40°42' W 074°01'5 4.6
2015-Jul-01 19:34N 40°46' W 074°01'0 0.0
2015-Jul-01 18:34N 40°46' W 074°01'0 0.0
2015-Jul-01 17:34N 40°46' W 074°01'0 0.0
2015-Jul-01 16:34N 40°46' W 074°01'0 0.0
2015-Jul-01 15:33N 40°46' W 074°01'0 0.0
2015-Jul-01 14:33N 40°46' W 074°01'0 0.0
2015-Jul-01 13:33N 40°46' W 074°01'6 6.5
2015-Jul-01 12:34N 40°40' W 074°02'3 3.5
2015-Jul-01 11:33N 40°37' W 074°03'0 0.0
2015-Jun-30 22:33N 40°37' W 074°03'4 4.2
2015-Jun-30 21:33N 40°33' W 074°04'9 9.3
2015-Jun-30 20:34N 40°42' W 074°00'4 4.0
2015-Jun-30 19:33N 40°46' W 074°00'0 0.0
2015-Jun-30 18:33N 40°46' W 074°00'0 0.0
2015-Jun-30 17:33N 40°46' W 074°00'0 0.0
2015-Jun-30 16:33N 40°46' W 074°00'0 0.0
2015-Jun-30 15:34N 40°46' W 074°00'0 0.0
2015-Jun-30 14:33N 40°46' W 074°00'2020.0
2015-Jun-30 13:33N 40°26' W 074°05'1414.0
2015-Jun-30 12:34N 40°40' W 074°02'4 4.0
2015-Jun-30 11:33N 40°36' W 074°03'10 9.9
2015-Jun-30 10:33N 40°26' W 074°05'10 0.9
2015-Jun-29 22:33N 40°36' W 074°03'6 2.8
2015-Jun-29 20:34N 40°41' W 074°00'5 4.8
2015-Jun-29 19:33N 40°46' W 074°01'0 0.0
2015-Jun-29 18:33N 40°46' W 074°01'0 0.0
2015-Jun-29 17:33N 40°46' W 074°01'0 0.0
2015-Jun-29 16:33N 40°46' W 074°01'0 0.0
2015-Jun-29 15:33N 40°46' W 074°01'0 0.0
2015-Jun-29 14:33N 40°46' W 074°01'0 0.0
2015-Jun-29 13:33N 40°46' W 074°01'7 7.1
2015-Jun-29 12:34N 40°39' W 074°02'3 3.3
2015-Jun-29 11:34N 40°36' W 074°03'  
2015-Jun-26 22:33N 40°34' W 074°02'8 4.0
2015-Jun-26 20:33N 40°42' W 074°00'4 3.7
2015-Jun-26 19:33N 40°46' W 074°00'10 4.8
2015-Jun-26 17:34N 40°36' W 074°03'10 9.6
2015-Jun-26 16:33N 40°46' W 074°00'1 0.7
2015-Jun-26 15:34N 40°46' W 074°01'0 0.0
2015-Jun-26 14:33N 40°46' W 074°01'0 0.0
2015-Jun-26 13:33N 40°46' W 074°01'7 6.8
2015-Jun-26 12:34N 40°40' W 074°02'2 2.5
2015-Jun-26 11:33N 40°37' W 074°03'11 9.2
2015-Jun-26 10:20N 40°26' W 074°05'0 0.0
2015-Jun-26 09:16N 40°26' W 074°05'10 0.9
2015-Jun-25 22:33N 40°36' W 074°03'5 2.6
2015-Jun-25 20:34N 40°41' W 074°01'5 5.2
2015-Jun-25 19:33N 40°46' W 074°01'0 0.0
2015-Jun-25 18:33N 40°46' W 074°01'0 0.0
2015-Jun-25 17:33N 40°46' W 074°01'0 0.0
2015-Jun-25 16:33N 40°46' W 074°01'0 0.0
2015-Jun-25 15:33N 40°46' W 074°01'0 0.0
2015-Jun-25 14:33N 40°46' W 074°01'0 0.0
2015-Jun-25 13:33N 40°46' W 074°01'7 6.5
2015-Jun-25 12:34N 40°40' W 074°02'4 4.0
2015-Jun-25 11:33N 40°36' W 074°03'0 0.0
2015-Jun-24 22:33N 40°36' W 074°03'6 3.1
2015-Jun-24 20:33N 40°42' W 074°01'4 4.5
2015-Jun-24 19:33N 40°46' W 074°01'0 0.0
2015-Jun-24 18:33N 40°46' W 074°01'0 0.0
2015-Jun-24 17:33N 40°46' W 074°01'0 0.0
2015-Jun-24 16:33N 40°46' W 074°01'0 0.0
2015-Jun-24 15:33N 40°46' W 074°01'0 0.0
2015-Jun-24 14:33N 40°46' W 074°01'0 0.2
2015-Jun-24 13:33N 40°46' W 074°01'7 7.5
2015-Jun-24 12:34N 40°39' W 074°02'1 1.5
2015-Jun-24 11:33N 40°37' W 074°03'1 0.1
2015-Jun-23 22:34N 40°36' W 074°03'6 3.1
2015-Jun-23 20:34N 40°42' W 074°00'4 4.1
2015-Jun-23 19:34N 40°46' W 074°01'0 0.0
2015-Jun-23 19:06N 40°46' W 074°01'  
Track history (hours):
 
Tides and Currents Weather Stations Pressure Air Temp Water Temp Dewpoint Dewpoint Depression Visibility Wind Speed Wind Dir Waves Ship Positions

Finest

Owner: NEW YORK FAST FERRY SERVICES INC, MAMARONECK, NY. More information available from US FCC via Universal Licensing System and Coast Guard Vessel Documentation Center.

Last reported at 2015-Jul-02 22:33 UTC. Time now 2015-Jul-04 15:18 UTC.
Position N 40°35' W 074°03'.

Length 38 m.

Type: High speed craft. MMSI: 366990590.

Date/timePositionNaut miles runAvg speedWind from/ knotsBaromVisibWave heightAir tempDewpointWater temp
2015-Jul-02 22:33N 40°35' W 074°03'3 2.7
2015-Jul-02 21:33N 40°33' W 074°04'10 9.8
2015-Jul-02 20:34N 40°42' W 074°00'1 1.1
2015-Jul-02 19:33N 40°43' W 074°01'1714.6
2015-Jul-02 18:24N 40°26' W 074°05'1112.7
2015-Jul-02 17:33N 40°37' W 074°03'9 9.3
2015-Jul-02 16:33N 40°46' W 074°00'0 0.0
2015-Jul-02 15:33N 40°46' W 074°00'0 0.0
2015-Jul-02 14:33N 40°46' W 074°00'0 0.0
2015-Jul-02 13:33N 40°46' W 074°00'5 5.2
2015-Jul-02 12:34N 40°41' W 074°02'4 4.1
2015-Jul-02 11:33N 40°37' W 074°03'1 0.1
2015-Jul-01 22:33N 40°38' W 074°03'4 2.1
2015-Jul-01 20:34N 40°42' W 074°01'5 4.6
2015-Jul-01 19:34N 40°46' W 074°01'0 0.0
2015-Jul-01 18:34N 40°46' W 074°01'0 0.0
2015-Jul-01 17:34N 40°46' W 074°01'0 0.0
2015-Jul-01 16:34N 40°46' W 074°01'0 0.0
2015-Jul-01 15:33N 40°46' W 074°01'0 0.0
2015-Jul-01 14:33N 40°46' W 074°01'0 0.0
2015-Jul-01 13:33N 40°46' W 074°01'6 6.5
2015-Jul-01 12:34N 40°40' W 074°02'3 3.5
2015-Jul-01 11:33N 40°37' W 074°03'0 0.0
2015-Jun-30 22:33N 40°37' W 074°03'4 4.2
2015-Jun-30 21:33N 40°33' W 074°04'9 9.3
2015-Jun-30 20:34N 40°42' W 074°00'4 4.0
2015-Jun-30 19:33N 40°46' W 074°00'0 0.0
2015-Jun-30 18:33N 40°46' W 074°00'0 0.0
2015-Jun-30 17:33N 40°46' W 074°00'0 0.0
2015-Jun-30 16:33N 40°46' W 074°00'0 0.0
2015-Jun-30 15:34N 40°46' W 074°00'0 0.0
2015-Jun-30 14:33N 40°46' W 074°00'2020.0
2015-Jun-30 13:33N 40°26' W 074°05'1414.0
2015-Jun-30 12:34N 40°40' W 074°02'4 4.0
2015-Jun-30 11:33N 40°36' W 074°03'10 9.9
2015-Jun-30 10:33N 40°26' W 074°05'10 0.9
2015-Jun-29 22:33N 40°36' W 074°03'6 2.8
2015-Jun-29 20:34N 40°41' W 074°00'5 4.8
2015-Jun-29 19:33N 40°46' W 074°01'0 0.0
2015-Jun-29 18:33N 40°46' W 074°01'0 0.0
2015-Jun-29 17:33N 40°46' W 074°01'0 0.0
2015-Jun-29 16:33N 40°46' W 074°01'0 0.0
2015-Jun-29 15:33N 40°46' W 074°01'0 0.0
2015-Jun-29 14:33N 40°46' W 074°01'0 0.0
2015-Jun-29 13:33N 40°46' W 074°01'7 7.1
2015-Jun-29 12:34N 40°39' W 074°02'3 3.3
2015-Jun-29 11:34N 40°36' W 074°03'  
2015-Jun-26 22:33N 40°34' W 074°02'8 4.0
2015-Jun-26 20:33N 40°42' W 074°00'4 3.7
2015-Jun-26 19:33N 40°46' W 074°00'10 4.8
2015-Jun-26 17:34N 40°36' W 074°03'10 9.6
2015-Jun-26 16:33N 40°46' W 074°00'1 0.7
2015-Jun-26 15:34N 40°46' W 074°01'0 0.0
2015-Jun-26 14:33N 40°46' W 074°01'0 0.0
2015-Jun-26 13:33N 40°46' W 074°01'7 6.8
2015-Jun-26 12:34N 40°40' W 074°02'2 2.5
2015-Jun-26 11:33N 40°37' W 074°03'11 9.2
2015-Jun-26 10:20N 40°26' W 074°05'0 0.0
2015-Jun-26 09:16N 40°26' W 074°05'10 0.9
2015-Jun-25 22:33N 40°36' W 074°03'5 2.6
2015-Jun-25 20:34N 40°41' W 074°01'5 5.2
2015-Jun-25 19:33N 40°46' W 074°01'0 0.0
2015-Jun-25 18:33N 40°46' W 074°01'0 0.0
2015-Jun-25 17:33N 40°46' W 074°01'0 0.0
2015-Jun-25 16:33N 40°46' W 074°01'0 0.0
2015-Jun-25 15:33N 40°46' W 074°01'0 0.0
2015-Jun-25 14:33N 40°46' W 074°01'0 0.0
2015-Jun-25 13:33N 40°46' W 074°01'7 6.5
2015-Jun-25 12:34N 40°40' W 074°02'4 4.0
2015-Jun-25 11:33N 40°36' W 074°03'0 0.0
2015-Jun-24 22:33N 40°36' W 074°03'6 3.1
2015-Jun-24 20:33N 40°42' W 074°01'4 4.5
2015-Jun-24 19:33N 40°46' W 074°01'0 0.0
2015-Jun-24 18:33N 40°46' W 074°01'0 0.0
2015-Jun-24 17:33N 40°46' W 074°01'0 0.0
2015-Jun-24 16:33N 40°46' W 074°01'0 0.0
2015-Jun-24 15:33N 40°46' W 074°01'0 0.0
2015-Jun-24 14:33N 40°46' W 074°01'0 0.2
2015-Jun-24 13:33N 40°46' W 074°01'7 7.5
2015-Jun-24 12:34N 40°39' W 074°02'1 1.5
2015-Jun-24 11:33N 40°37' W 074°03'1 0.1
2015-Jun-23 22:34N 40°36' W 074°03'6 3.1
2015-Jun-23 20:34N 40°42' W 074°00'4 4.1
2015-Jun-23 19:34N 40°46' W 074°01'0 0.0
2015-Jun-23 19:06N 40°46' W 074°01'  

Dump ship's entire track history